Time;durP1;ratioP1;P1;durP2;ratioP2;P2;SDS_P1;SDS_P2;PMS_P1;PMS_P2;Temp;Humidity;BMP_temperature;BMP_pressure;BME280_temperature;BME280_humidity;BME280_pressure;Samples;Min_cycle;Max_cycle;Signal;HPM_P1;HPM_P2
2023/01/27 00:00:13;;;;;;;12.03;8.00;;;-1.90;99.90;;;;;;5070332;28;20530;-78
2023/01/27 00:02:40;;;;;;;18.50;8.50;;;-2.00;99.90;;;;;;5070206;23;20580;-50
2023/01/27 00:05:08;;;;;;;12.70;9.10;;;-1.90;99.90;;;;;;5058972;28;20533;-48
2023/01/27 00:07:35;;;;;;;8.67;6.90;;;-2.30;99.90;;;;;;5050668;28;20560;-49
2023/01/27 00:10:02;;;;;;;10.60;7.37;;;-2.70;99.90;;;;;;5049567;28;20895;-47
2023/01/27 00:15:15;;;;;;;13.30;8.93;;;-2.80;99.90;;;;;;5047896;28;20416;-51
2023/01/27 00:17:42;;;;;;;9.87;8.47;;;-2.80;99.90;;;;;;5125631;23;20587;-48
2023/01/27 00:20:10;;;;;;;13.93;8.70;;;-2.80;99.90;;;;;;5067969;28;20526;-49
2023/01/27 00:25:21;;;;;;;11.30;7.83;;;-2.40;99.90;;;;;;5066574;28;20458;-51
2023/01/27 00:27:48;;;;;;;11.33;7.97;;;-2.20;99.90;;;;;;5059531;28;20549;-48
2023/01/27 00:30:17;;;;;;;13.50;8.30;;;-2.10;99.90;;;;;;5049040;28;20536;-45
2023/01/27 00:35:28;;;;;;;11.63;8.20;;;-2.10;99.90;;;;;;5049475;28;20980;-48
2023/01/27 00:37:55;;;;;;;10.77;7.80;;;-2.30;99.90;;;;;;5048415;28;20466;-49
2023/01/27 00:40:22;;;;;;;14.60;8.57;;;-2.80;99.90;;;;;;5048044;28;20536;-48
2023/01/27 00:42:49;;;;;;;12.93;7.30;;;-2.80;99.90;;;;;;5047271;28;20576;-49
2023/01/27 00:48:01;;;;;;;14.30;8.27;;;-2.80;99.90;;;;;;5048169;28;20444;-49
2023/01/27 00:50:28;;;;;;;11.03;8.10;;;-2.50;99.90;;;;;;5047833;28;20689;-48
2023/01/27 00:52:57;;;;;;;11.90;8.27;;;-2.40;99.90;;;;;;5048119;28;20523;-49
2023/01/27 00:55:24;;;;;;;17.93;10.27;;;-2.20;99.90;;;;;;5048829;28;20457;-48
2023/01/27 00:57:51;;;;;;;12.53;8.77;;;-2.30;99.90;;;;;;5049380;28;20472;-49
2023/01/27 01:00:20;;;;;;;14.50;9.40;;;-2.50;99.90;;;;;;5048863;28;20530;-47
2023/01/27 01:02:47;;;;;;;14.23;8.57;;;-2.70;99.90;;;;;;5048779;28;20563;-50
2023/01/27 01:05:14;;;;;;;11.97;8.40;;;-2.70;99.90;;;;;;5046886;28;20529;-47
2023/01/27 01:07:41;;;;;;;11.47;9.20;;;-2.90;99.90;;;;;;5047630;28;20468;-49
2023/01/27 01:10:09;;;;;;;12.00;8.73;;;-2.80;99.90;;;;;;5047197;28;20544;-50
2023/01/27 01:12:35;;;;;;;14.30;9.93;;;-2.70;99.90;;;;;;5045769;28;20446;-48
2023/01/27 01:15:02;;;;;;;9.13;7.40;;;-2.50;99.90;;;;;;5046468;28;20529;-49
2023/01/27 01:17:31;;;;;;;12.20;8.40;;;-2.40;99.90;;;;;;5046954;28;21066;-47
2023/01/27 01:19:58;;;;;;;11.73;8.20;;;-2.50;99.90;;;;;;5048838;28;20477;-47
2023/01/27 01:22:24;;;;;;;10.73;7.90;;;-2.50;99.90;;;;;;5048342;28;20557;-49
2023/01/27 01:24:51;;;;;;;9.57;8.33;;;-2.50;99.90;;;;;;5048274;28;20872;-49
2023/01/27 01:27:18;;;;;;;12.27;8.17;;;-2.30;99.90;;;;;;5047201;28;21049;-48
2023/01/27 01:29:45;;;;;;;13.90;9.03;;;-2.40;99.90;;;;;;5048038;28;20853;-50
2023/01/27 01:32:12;;;;;;;10.17;7.43;;;-2.30;99.90;;;;;;5047796;28;20538;-47
2023/01/27 01:34:40;;;;;;;13.03;8.50;;;-2.20;99.90;;;;;;5046961;28;20473;-49
2023/01/27 01:37:07;;;;;;;12.20;8.63;;;-2.10;99.90;;;;;;5049199;28;20538;-48
2023/01/27 01:39:34;;;;;;;13.80;8.50;;;-2.00;99.90;;;;;;5050353;28;20525;-49
2023/01/27 01:42:01;;;;;;;11.60;8.37;;;-2.00;99.90;;;;;;5051126;28;20651;-48
2023/01/27 01:44:30;;;;;;;10.40;8.50;;;-2.00;99.90;;;;;;5049982;28;21033;-49
2023/01/27 01:46:58;;;;;;;11.30;7.90;;;-2.00;99.90;;;;;;5052158;28;20528;-48
2023/01/27 01:49:30;;;;;;;11.67;8.33;;;-2.00;99.90;;;;;;5052331;28;20457;-48
2023/01/27 01:52:02;;;;;;;9.97;7.50;;;-2.00;99.90;;;;;;5052211;28;20517;-48
2023/01/27 01:54:32;;;;;;;10.60;7.57;;;-2.00;99.90;;;;;;5051036;28;20532;-47
2023/01/27 01:57:04;;;;;;;12.97;8.57;;;-2.00;99.90;;;;;;5051765;28;21000;-48
2023/01/27 01:59:34;;;;;;;13.83;7.97;;;-2.10;99.90;;;;;;5051652;28;20877;-48
2023/01/27 02:02:06;;;;;;;9.30;7.17;;;-2.20;99.90;;;;;;5051909;28;20508;-47
2023/01/27 02:04:36;;;;;;;10.10;8.10;;;-2.40;99.90;;;;;;5050673;28;20546;-48
2023/01/27 02:07:08;;;;;;;10.40;8.60;;;-2.60;99.90;;;;;;5051626;28;20449;-48
2023/01/27 02:09:38;;;;;;;14.03;8.33;;;-2.60;99.90;;;;;;5051437;28;20536;-49
2023/01/27 02:12:05;;;;;;;11.33;7.57;;;-2.40;99.90;;;;;;5050588;28;20517;-49
2023/01/27 02:14:33;;;;;;;9.73;8.50;;;-2.30;99.90;;;;;;5049753;28;20525;-50
2023/01/27 02:17:00;;;;;;;12.90;9.03;;;-2.20;99.90;;;;;;5050178;28;20513;-49
2023/01/27 02:19:37;;;;;;;11.43;8.20;;;-2.10;99.90;;;;;;5050267;28;20539;-49
2023/01/27 02:22:11;;;;;;;11.60;7.50;;;-2.00;99.90;;;;;;5050258;28;20560;-48
2023/01/27 02:24:44;;;;;;;11.47;7.73;;;-2.10;99.90;;;;;;5049411;28;20534;-48
2023/01/27 02:27:13;;;;;;;11.30;7.77;;;-2.10;99.90;;;;;;5049541;28;20552;-48
2023/01/27 02:29:40;;;;;;;12.37;7.53;;;-2.00;99.90;;;;;;5051568;28;20524;-48
2023/01/27 02:32:06;;;;;;;10.20;7.03;;;-1.90;99.90;;;;;;5051872;28;20521;-47
2023/01/27 02:34:37;;;;;;;9.90;6.40;;;-2.00;99.90;;;;;;5049839;28;20945;-48
2023/01/27 02:37:09;;;;;;;10.57;6.80;;;-2.00;99.90;;;;;;5050695;28;20530;-49
2023/01/27 02:39:43;;;;;;;7.93;6.03;;;-2.00;99.90;;;;;;5051081;28;20491;-50
2023/01/27 02:42:14;;;;;;;10.17;6.40;;;-2.00;99.90;;;;;;5051263;28;20556;-48
2023/01/27 02:44:41;;;;;;;9.97;6.50;;;-2.00;99.90;;;;;;5049301;28;20989;-48
2023/01/27 02:47:07;;;;;;;7.37;5.93;;;-2.00;99.90;;;;;;5050732;28;20547;-47
2023/01/27 02:49:34;;;;;;;7.53;5.70;;;-2.00;99.90;;;;;;5051150;28;20545;-48
2023/01/27 02:52:01;;;;;;;7.97;5.97;;;-2.00;99.90;;;;;;5050479;28;20528;-49
2023/01/27 02:54:30;;;;;;;7.70;5.83;;;-2.00;99.90;;;;;;5049664;28;20525;-48
2023/01/27 02:56:57;;;;;;;6.67;4.50;;;-2.00;99.90;;;;;;5050883;28;20524;-48
2023/01/27 02:59:25;;;;;;;12.90;7.57;;;-2.10;99.90;;;;;;5050565;28;20564;-49
2023/01/27 03:01:52;;;;;;;10.23;7.37;;;-2.10;99.90;;;;;;5050392;28;21041;-48
2023/01/27 03:04:19;;;;;;;10.17;6.83;;;-2.30;99.90;;;;;;5049833;28;20534;-49
2023/01/27 03:06:46;;;;;;;8.00;6.67;;;-2.40;99.90;;;;;;5050611;28;20529;-48
2023/01/27 03:09:13;;;;;;;10.13;7.57;;;-2.60;99.90;;;;;;5050820;28;20740;-48
2023/01/27 03:19:54;;;;;;;7.63;6.10;;;-2.30;99.90;;;;;;5050768;28;20437;-50
2023/01/27 03:22:20;;;;;;;8.30;5.80;;;-2.20;99.90;;;;;;5049856;28;20558;-48
2023/01/27 03:24:47;;;;;;;9.43;5.43;;;-2.20;99.90;;;;;;5049372;28;20524;-47
2023/01/27 03:27:14;;;;;;;9.00;5.50;;;-2.10;99.90;;;;;;5049449;28;20544;-44
2023/01/27 03:29:54;;;;;;;6.20;5.50;;;-2.10;99.90;;;;;;5050541;28;20537;-47
2023/01/27 03:32:21;;;;;;;8.90;6.90;;;-2.30;99.90;;;;;;5050147;28;20524;-48
2023/01/27 03:34:48;;;;;;;7.57;6.27;;;-2.60;99.90;;;;;;5049768;28;20534;-48
2023/01/27 03:48:17;;;;;;;8.43;4.23;;;-2.20;99.90;;;;;;5049674;28;20461;-47
2023/01/27 03:50:44;;;;;;;9.87;5.53;;;-2.20;99.90;;;;;;5049847;28;20450;-48
2023/01/27 03:53:11;;;;;;;7.80;5.10;;;-2.20;99.90;;;;;;5049304;28;20525;-48
2023/01/27 03:55:38;;;;;;;8.30;4.60;;;-2.10;99.90;;;;;;5049198;28;20544;-49
2023/01/27 03:58:18;;;;;;;7.53;4.23;;;-2.10;99.90;;;;;;5037379;28;20550;-47
2023/01/27 04:00:49;;;;;;;9.33;5.17;;;-2.30;99.90;;;;;;5029096;28;20446;-49
2023/01/27 04:08:47;;;;;;;7.50;5.33;;;-2.20;99.90;;;;;;5048734;28;20497;-48
2023/01/27 04:14:01;;;;;;;8.37;5.70;;;-2.30;99.90;;;;;;5049244;28;20431;-49
2023/01/27 04:16:30;;;;;;;9.37;6.03;;;-2.70;99.90;;;;;;5049284;28;20452;-47
2023/01/27 04:18:57;;;;;;;7.00;4.90;;;-3.10;99.90;;;;;;5049507;28;21007;-46
2023/01/27 04:21:25;;;;;;;9.40;6.53;;;-2.80;99.90;;;;;;5048974;28;21017;-48
2023/01/27 04:23:52;;;;;;;7.40;5.23;;;-2.70;99.90;;;;;;5048032;28;20560;-48
2023/01/27 04:26:20;;;;;;;9.37;5.97;;;-2.60;99.90;;;;;;5048199;28;20468;-48
2023/01/27 04:28:46;;;;;;;8.47;6.50;;;-2.60;99.90;;;;;;5048044;28;21046;-48
2023/01/27 04:31:14;;;;;;;8.10;5.90;;;-2.80;99.90;;;;;;5047591;28;20491;-50
2023/01/27 04:33:42;;;;;;;9.70;6.60;;;-2.60;99.90;;;;;;5047731;28;20438;-48
2023/01/27 04:36:10;;;;;;;9.23;6.00;;;-2.50;99.90;;;;;;5047650;28;20536;-48
2023/01/27 04:38:37;;;;;;;7.80;6.17;;;-2.50;99.90;;;;;;5048730;28;20543;-49
2023/01/27 04:41:04;;;;;;;7.87;5.33;;;-2.40;99.90;;;;;;5049021;28;20527;-48
2023/01/27 04:43:31;;;;;;;10.43;5.53;;;-2.30;99.90;;;;;;5047027;28;20560;-48
2023/01/27 04:45:58;;;;;;;8.43;5.87;;;-2.30;99.90;;;;;;5049109;28;21027;-48
2023/01/27 04:48:25;;;;;;;15.03;9.57;;;-2.20;99.90;;;;;;5048844;28;20544;-48
2023/01/27 04:50:53;;;;;;;19.30;10.43;;;-2.10;99.90;;;;;;5049059;28;20527;-49
2023/01/27 04:53:20;;;;;;;13.83;7.90;;;-2.20;99.90;;;;;;5047794;28;20521;-48
2023/01/27 04:55:48;;;;;;;13.33;7.60;;;-2.20;99.90;;;;;;5049466;28;20536;-48
2023/01/27 04:58:17;;;;;;;7.37;6.30;;;-2.20;99.90;;;;;;5048796;28;20553;-46
2023/01/27 05:00:44;;;;;;;7.90;5.90;;;-2.20;99.90;;;;;;5048718;28;20449;-49
2023/01/27 05:03:11;;;;;;;6.10;5.20;;;-2.20;99.90;;;;;;5048263;28;21074;-47
2023/01/27 05:05:39;;;;;;;7.67;5.80;;;-2.20;99.90;;;;;;5048831;28;20445;-47
2023/01/27 05:08:09;;;;;;;7.47;5.97;;;-2.30;99.90;;;;;;5047796;28;20902;-48
2023/01/27 05:10:36;;;;;;;8.30;5.20;;;-2.60;99.90;;;;;;5048371;28;20533;-50
2023/01/27 05:13:03;;;;;;;9.80;6.10;;;-2.60;99.90;;;;;;5052118;28;20521;-47
2023/01/27 05:15:30;;;;;;;9.03;5.27;;;-2.50;99.90;;;;;;5052543;28;20469;-47
2023/01/27 05:17:57;;;;;;;6.77;5.50;;;-2.60;99.90;;;;;;5052355;28;20936;-48
2023/01/27 05:20:24;;;;;;;8.27;5.50;;;-2.60;99.90;;;;;;5052251;28;20528;-48
2023/01/27 05:23:33;;;;;;;8.73;6.20;;;-2.60;99.90;;;;;;5050242;28;20478;-45
2023/01/27 05:25:42;;;;;;;8.97;7.10;;;-2.70;99.90;;;;;;5050091;28;20441;-49
2023/01/27 05:28:09;;;;;;;10.43;7.97;;;-2.80;99.90;;;;;;5051371;28;20556;-48
2023/01/27 05:30:36;;;;;;;9.53;7.90;;;-2.50;99.90;;;;;;5051026;28;20545;-49
2023/01/27 05:33:03;;;;;;;10.37;6.70;;;-2.40;99.90;;;;;;5050410;28;20891;-49
2023/01/27 05:35:32;;;;;;;9.50;6.03;;;-2.40;99.90;;;;;;5049814;28;20512;-48
2023/01/27 05:37:59;;;;;;;6.93;5.50;;;-2.30;99.90;;;;;;5052044;28;20552;-48
2023/01/27 05:40:27;;;;;;;9.67;6.27;;;-2.50;99.90;;;;;;5052241;28;20882;-49
2023/01/27 05:42:55;;;;;;;6.60;6.00;;;-2.60;99.90;;;;;;5050347;28;20568;-45
2023/01/27 05:45:22;;;;;;;10.73;7.80;;;-2.70;99.90;;;;;;5051395;28;20529;-49
2023/01/27 05:47:50;;;;;;;8.10;7.30;;;-2.60;99.90;;;;;;5051976;28;21015;-50
2023/01/27 05:50:18;;;;;;;6.00;5.07;;;-2.50;99.90;;;;;;5050901;28;20659;-49
2023/01/27 05:52:45;;;;;;;6.67;4.47;;;-2.40;99.90;;;;;;5050601;28;20524;-50
2023/01/27 05:55:12;;;;;;;6.23;5.23;;;-2.30;99.90;;;;;;5050403;28;20475;-48
2023/01/27 05:57:39;;;;;;;7.77;4.30;;;-2.20;99.90;;;;;;5050191;28;20454;-49
2023/01/27 06:00:08;;;;;;;7.10;5.30;;;-2.20;99.90;;;;;;5040478;28;20604;-49
2023/01/27 06:02:35;;;;;;;7.80;5.47;;;-2.30;99.90;;;;;;5049401;28;21025;-50
2023/01/27 06:05:02;;;;;;;7.43;5.33;;;-2.20;99.90;;;;;;5046463;28;20526;-49
2023/01/27 06:07:29;;;;;;;7.07;5.83;;;-2.20;99.90;;;;;;5042416;28;20545;-48
2023/01/27 06:09:56;;;;;;;8.20;5.63;;;-2.30;99.90;;;;;;5037266;28;20561;-50
2023/01/27 06:12:23;;;;;;;10.00;6.07;;;-2.40;99.90;;;;;;5049405;28;20532;-48
2023/01/27 06:14:50;;;;;;;10.80;6.80;;;-2.30;99.90;;;;;;5040431;28;20536;-48
2023/01/27 06:19:52;;;;;;;9.10;6.47;;;-2.30;99.90;;;;;;5046188;23;20496;-51
2023/01/27 06:22:18;;;;;;;7.90;5.53;;;-2.50;99.90;;;;;;5027388;28;20438;-49
2023/01/27 06:24:45;;;;;;;8.97;6.40;;;-2.70;99.90;;;;;;5024367;28;20542;-53
2023/01/27 06:27:12;;;;;;;9.40;6.33;;;-2.60;99.90;;;;;;5024732;28;20454;-49
2023/01/27 06:29:39;;;;;;;8.03;6.73;;;-2.70;99.90;;;;;;5018266;28;20455;-51
2023/01/27 06:32:06;;;;;;;9.83;6.57;;;-2.80;99.90;;;;;;5028584;28;20532;-50
2023/01/27 06:34:33;;;;;;;7.87;6.20;;;-3.00;99.90;;;;;;5027081;28;20525;-51
2023/01/27 06:37:01;;;;;;;12.73;5.87;;;-2.90;99.90;;;;;;5028538;28;20516;-49
2023/01/27 06:39:28;;;;;;;13.03;7.37;;;-2.80;99.90;;;;;;5028057;28;20554;-51
2023/01/27 06:41:55;;;;;;;11.70;6.77;;;-2.70;99.90;;;;;;5028698;28;20529;-50
2023/01/27 06:44:22;;;;;;;6.70;5.50;;;-2.80;99.90;;;;;;5025715;28;20478;-49
2023/01/27 06:46:50;;;;;;;10.23;6.30;;;-2.70;99.90;;;;;;5021244;28;20481;-49
2023/01/27 06:49:16;;;;;;;8.80;6.03;;;-2.70;99.90;;;;;;5021731;28;20531;-50
2023/01/27 06:51:43;;;;;;;8.70;5.97;;;-2.60;99.90;;;;;;5028693;28;20472;-49
2023/01/27 06:54:12;;;;;;;8.20;5.40;;;-2.60;99.90;;;;;;5028968;28;20814;-51
2023/01/27 06:56:38;;;;;;;7.97;5.70;;;-2.50;99.90;;;;;;5010714;28;20459;-52
2023/01/27 06:59:05;;;;;;;8.07;5.50;;;-2.40;99.90;;;;;;5010668;28;20550;-50
2023/01/27 07:01:32;;;;;;;6.53;4.93;;;-2.40;99.90;;;;;;5010238;28;20478;-49
2023/01/27 07:03:59;;;;;;;7.77;6.10;;;-2.40;99.90;;;;;;5010730;28;20570;-51
2023/01/27 07:06:26;;;;;;;8.40;5.53;;;-2.40;99.90;;;;;;5010281;28;20526;-52
2023/01/27 07:08:53;;;;;;;12.27;5.63;;;-2.50;99.90;;;;;;5011311;28;20554;-49
2023/01/27 07:11:21;;;;;;;5.97;5.37;;;-2.40;99.90;;;;;;5009490;28;20538;-50
2023/01/27 07:13:48;;;;;;;5.50;4.83;;;-2.30;99.90;;;;;;5009282;28;20443;-50
2023/01/27 07:16:15;;;;;;;11.60;6.60;;;-2.30;99.90;;;;;;5009342;28;20521;-51
2023/01/27 07:18:42;;;;;;;9.50;5.57;;;-2.50;99.90;;;;;;5009393;28;20566;-52
2023/01/27 07:21:09;;;;;;;8.07;6.13;;;-2.50;99.90;;;;;;5010248;28;21004;-49
2023/01/27 07:23:36;;;;;;;6.50;5.47;;;-2.40;99.90;;;;;;5009403;28;20479;-48
2023/01/27 07:26:02;;;;;;;10.50;6.03;;;-2.30;99.90;;;;;;5010611;28;20534;-51
2023/01/27 07:28:31;;;;;;;9.30;5.63;;;-2.60;99.90;;;;;;5010475;28;20563;-49
2023/01/27 07:31:01;;;;;;;8.77;5.83;;;-2.60;99.90;;;;;;5010789;28;20486;-52
2023/01/27 07:33:28;;;;;;;7.37;5.20;;;-2.50;99.90;;;;;;5009259;28;20886;-50
2023/01/27 07:35:55;;;;;;;7.43;5.80;;;-2.40;99.90;;;;;;5010035;28;20546;-49
2023/01/27 07:38:22;;;;;;;5.80;5.20;;;-2.30;99.90;;;;;;5009166;28;20550;-50
2023/01/27 07:40:49;;;;;;;7.60;4.73;;;-2.20;99.90;;;;;;5009710;28;20534;-49
2023/01/27 07:43:16;;;;;;;7.43;4.97;;;-2.20;99.90;;;;;;5007191;28;20576;-51
2023/01/27 07:45:47;;;;;;;7.53;5.30;;;-2.20;99.90;;;;;;5009399;28;20530;-51
2023/01/27 07:48:15;;;;;;;6.07;5.47;;;-2.20;99.90;;;;;;5008854;28;20468;-51
2023/01/27 07:50:42;;;;;;;9.23;7.07;;;-2.20;99.90;;;;;;5009924;28;20474;-51
2023/01/27 07:53:10;;;;;;;6.17;5.20;;;-2.20;99.90;;;;;;5010363;28;20871;-49
2023/01/27 07:55:37;;;;;;;6.90;5.90;;;-2.10;99.90;;;;;;5009887;28;20545;-49
2023/01/27 07:58:04;;;;;;;6.40;5.33;;;-2.20;99.90;;;;;;5010275;28;20566;-52
2023/01/27 08:00:32;;;;;;;7.53;4.83;;;-2.30;99.90;;;;;;5009511;28;20880;-49
2023/01/27 08:03:02;;;;;;;7.60;5.83;;;-2.30;99.90;;;;;;5008080;28;20450;-50
2023/01/27 08:05:32;;;;;;;6.87;5.50;;;-2.30;99.90;;;;;;5008812;28;21015;-49
2023/01/27 08:08:02;;;;;;;8.70;5.30;;;-2.20;99.90;;;;;;5008383;28;20550;-50
2023/01/27 08:10:30;;;;;;;6.10;4.90;;;-2.30;99.90;;;;;;5008184;28;20443;-51
2023/01/27 08:12:57;;;;;;;7.97;5.23;;;-2.70;99.90;;;;;;5008400;28;20478;-49
2023/01/27 08:15:23;;;;;;;7.73;5.97;;;-2.80;99.90;;;;;;5008728;28;20530;-50
2023/01/27 08:17:55;;;;;;;5.97;4.83;;;-2.80;99.90;;;;;;5009915;28;20569;-49
2023/01/27 08:20:24;;;;;;;7.37;4.53;;;-2.70;99.90;;;;;;5009814;28;20530;-52
2023/01/27 08:22:50;;;;;;;8.83;5.30;;;-2.70;99.90;;;;;;5009405;28;20538;-55
2023/01/27 08:25:17;;;;;;;7.13;4.77;;;-2.70;99.90;;;;;;5009713;28;20656;-49
2023/01/27 08:27:44;;;;;;;7.77;5.73;;;-2.80;99.90;;;;;;5010505;28;20530;-50
2023/01/27 08:30:12;;;;;;;10.03;5.90;;;-2.50;99.90;;;;;;5009936;28;20534;-49
2023/01/27 08:32:39;;;;;;;12.30;7.17;;;-2.70;99.90;;;;;;5010372;28;20513;-49
2023/01/27 08:35:06;;;;;;;7.23;5.20;;;-2.80;99.90;;;;;;5009203;28;20454;-49
2023/01/27 08:37:34;;;;;;;7.23;4.97;;;-2.80;99.90;;;;;;5009274;28;20943;-52
2023/01/27 08:40:01;;;;;;;10.50;6.03;;;-2.80;99.90;;;;;;5010092;28;20535;-51
2023/01/27 08:42:28;;;;;;;11.63;6.63;;;-2.90;99.90;;;;;;5008151;28;20536;-50
2023/01/27 08:44:55;;;;;;;8.33;6.10;;;-2.80;99.90;;;;;;5009687;28;20576;-48
2023/01/27 08:47:22;;;;;;;8.30;5.40;;;-2.70;99.90;;;;;;5013372;28;20534;-49
2023/01/27 08:49:49;;;;;;;9.07;5.87;;;-2.70;99.90;;;;;;5013875;28;20549;-49
2023/01/27 08:52:15;;;;;;;7.07;5.40;;;-2.60;99.90;;;;;;5013397;28;20446;-51
2023/01/27 08:54:44;;;;;;;11.70;6.00;;;-2.50;99.90;;;;;;5012945;28;20524;-49
2023/01/27 08:57:10;;;;;;;8.17;5.53;;;-2.40;99.90;;;;;;5014031;28;20525;-49
2023/01/27 08:59:37;;;;;;;8.40;5.70;;;-2.30;99.90;;;;;;5013309;28;20557;-50
2023/01/27 09:02:04;;;;;;;31.17;15.37;;;-2.10;99.90;;;;;;5013782;28;20534;-50
2023/01/27 09:04:31;;;;;;;11.40;8.00;;;-2.10;99.90;;;;;;5012380;28;20938;-49
2023/01/27 09:06:58;;;;;;;18.10;10.40;;;-2.10;99.90;;;;;;5012851;28;21008;-50
2023/01/27 09:09:25;;;;;;;30.57;18.70;;;-2.00;99.90;;;;;;5012661;28;21063;-50
2023/01/27 09:11:53;;;;;;;8.07;6.30;;;-2.10;99.90;;;;;;5012776;28;20534;-50
2023/01/27 09:14:20;;;;;;;8.03;6.03;;;-2.40;99.90;;;;;;5012307;28;21052;-50
2023/01/27 09:16:47;;;;;;;10.13;5.80;;;-2.40;99.90;;;;;;5013158;28;20584;-48
2023/01/27 09:19:14;;;;;;;11.43;8.40;;;-2.30;99.90;;;;;;5013039;28;20482;-55
2023/01/27 09:21:40;;;;;;;9.13;6.80;;;-2.10;99.90;;;;;;5013301;28;20537;-50
2023/01/27 09:24:07;;;;;;;8.03;5.87;;;-2.10;99.90;;;;;;5012527;28;20562;-49
2023/01/27 09:26:34;;;;;;;16.47;7.07;;;-2.20;99.90;;;;;;5013053;28;20530;-50
2023/01/27 09:29:02;;;;;;;7.80;5.97;;;-2.50;99.90;;;;;;5013226;28;20547;-49
2023/01/27 09:31:29;;;;;;;9.03;6.83;;;-2.80;99.90;;;;;;5012781;28;20538;-50
2023/01/27 09:33:56;;;;;;;8.97;6.30;;;-2.80;99.90;;;;;;5012745;28;20531;-52
2023/01/27 09:36:23;;;;;;;10.83;7.50;;;-2.70;99.90;;;;;;5012721;28;20529;-50
2023/01/27 09:38:54;;;;;;;7.93;6.73;;;-2.50;99.90;;;;;;5012955;28;20547;-49
2023/01/27 09:41:52;;;;;;;9.13;6.33;;;-2.30;99.90;;;;;;5013114;28;20538;-51
2023/01/27 09:44:50;;;;;;;11.33;7.60;;;-2.20;99.90;;;;;;5009853;28;20554;-48
2023/01/27 09:47:40;;;;;;;12.47;7.93;;;-2.00;99.90;;;;;;4996794;28;21057;-49
2023/01/27 09:50:18;;;;;;;9.13;6.27;;;-1.90;99.90;;;;;;5012947;28;20528;-50
2023/01/27 09:52:58;;;;;;;9.43;6.60;;;-1.80;99.90;;;;;;5012818;28;20534;-50
2023/01/27 09:55:35;;;;;;;9.50;6.40;;;-1.60;99.90;;;;;;5012705;28;20885;-49
2023/01/27 09:58:08;;;;;;;15.23;10.50;;;-1.50;99.90;;;;;;5011970;28;20550;-51
2023/01/27 10:00:52;;;;;;;23.00;15.47;;;-2.00;99.90;;;;;;5012050;28;20534;-48
2023/01/27 10:03:35;;;;;;;27.63;14.77;;;-2.00;99.90;;;;;;5011435;28;20937;-49
2023/01/27 10:06:18;;;;;;;16.80;10.27;;;-1.70;99.90;;;;;;5011822;28;21040;-49
2023/01/27 10:09:23;;;;;;;19.10;11.03;;;-1.50;99.90;;;;;;5018884;28;20458;-49
2023/01/27 10:12:00;;;;;;;15.00;8.20;;;-1.60;99.90;;;;;;5031351;28;21000;-51
2023/01/27 10:14:39;;;;;;;8.80;5.23;;;-1.80;99.90;;;;;;5031071;28;20521;-50
2023/01/27 10:17:20;;;;;;;8.70;6.07;;;-2.20;99.90;;;;;;5032222;28;20513;-49
2023/01/27 10:20:02;;;;;;;8.27;4.83;;;-2.20;99.90;;;;;;5031777;28;20576;-49
2023/01/27 10:22:40;;;;;;;43.93;20.83;;;-2.20;99.90;;;;;;5031826;28;20442;-48
2023/01/27 10:25:19;;;;;;;24.87;12.90;;;-2.00;99.90;;;;;;5030792;28;20565;-48
2023/01/27 10:27:49;;;;;;;20.60;11.97;;;-1.70;99.90;;;;;;5031773;28;20565;-49
2023/01/27 10:30:21;;;;;;;13.70;7.40;;;-1.50;99.90;;;;;;5031405;28;20534;-49
2023/01/27 10:32:55;;;;;;;8.00;6.40;;;-1.30;99.90;;;;;;5031756;28;20521;-50
2023/01/27 10:35:28;;;;;;;8.43;5.10;;;-1.30;99.90;;;;;;5031023;28;20520;-49
2023/01/27 10:38:08;;;;;;;6.97;4.90;;;-1.20;99.90;;;;;;5031813;28;20550;-49
2023/01/27 10:40:45;;;;;;;9.47;4.50;;;-1.50;99.90;;;;;;5031564;28;20874;-49
2023/01/27 10:43:18;;;;;;;7.40;5.73;;;-1.80;99.90;;;;;;5029176;28;20542;-50
2023/01/27 10:45:54;;;;;;;7.40;6.10;;;-1.90;99.90;;;;;;5031199;28;20525;-49
2023/01/27 10:48:34;;;;;;;8.50;5.47;;;-1.90;99.90;;;;;;5031129;28;20557;-50
2023/01/27 10:51:06;;;;;;;8.67;6.20;;;-1.80;99.90;;;;;;5031620;28;20856;-52
2023/01/27 10:53:39;;;;;;;8.67;5.67;;;-1.90;99.90;;;;;;5030450;28;20536;-48
2023/01/27 10:56:12;;;;;;;9.97;8.07;;;-1.80;99.90;;;;;;5031079;28;20542;-48
2023/01/27 10:58:51;;;;;;;11.10;6.43;;;-1.80;99.90;;;;;;5031461;28;20962;-49
2023/01/27 11:01:24;;;;;;;9.33;6.03;;;-1.90;99.90;;;;;;5030824;28;20545;-50
2023/01/27 11:03:57;;;;;;;6.50;5.50;;;-1.90;99.90;;;;;;5030446;28;20539;-49
2023/01/27 11:06:28;;;;;;;8.60;6.50;;;-2.00;99.90;;;;;;5030131;28;20525;-49
2023/01/27 11:09:04;;;;;;;8.00;5.80;;;-2.10;99.90;;;;;;5031159;28;20549;-49
2023/01/27 11:11:48;;;;;;;9.50;5.97;;;-2.00;99.90;;;;;;5030280;28;20459;-48
2023/01/27 11:14:25;;;;;;;5.50;4.40;;;-1.70;99.90;;;;;;5028746;28;20480;-50
2023/01/27 11:16:55;;;;;;;9.63;5.40;;;-1.60;99.90;;;;;;5012856;28;20522;-51
2023/01/27 11:19:40;;;;;;;7.33;5.00;;;-1.40;99.90;;;;;;5009463;28;20900;-49
2023/01/27 11:22:17;;;;;;;8.60;5.80;;;-1.40;99.90;;;;;;5010758;28;20539;-52
2023/01/27 11:24:47;;;;;;;8.90;4.93;;;-1.40;99.90;;;;;;5009697;28;20841;-50
2023/01/27 11:27:25;;;;;;;8.53;6.60;;;-1.20;99.90;;;;;;5009009;28;20538;-55
2023/01/27 11:29:58;;;;;;;8.47;6.93;;;-1.20;99.90;;;;;;5010885;28;20454;-50
2023/01/27 11:32:38;;;;;;;8.50;5.93;;;-1.10;99.90;;;;;;5008110;28;20443;-50
2023/01/27 11:35:10;;;;;;;9.00;5.70;;;-1.00;99.90;;;;;;5015829;28;20443;-50
2023/01/27 11:37:39;;;;;;;9.23;5.73;;;-0.80;99.90;;;;;;5019807;28;20548;-50
2023/01/27 11:40:15;;;;;;;7.87;6.27;;;-0.90;99.90;;;;;;5020089;28;20521;-50
2023/01/27 11:42:43;;;;;;;8.43;6.50;;;-1.30;99.90;;;;;;5019549;28;20443;-51
2023/01/27 11:45:14;;;;;;;11.37;6.47;;;-1.60;99.90;;;;;;5016168;28;20562;-49
2023/01/27 11:47:43;;;;;;;11.73;7.10;;;-1.60;99.90;;;;;;5018586;28;20518;-48
2023/01/27 11:50:16;;;;;;;8.50;6.30;;;-1.60;99.90;;;;;;5020033;28;20518;-50
2023/01/27 11:52:45;;;;;;;11.77;7.10;;;-1.50;99.90;;;;;;5025103;28;20439;-51
2023/01/27 11:55:18;;;;;;;16.60;6.77;;;-1.30;99.90;;;;;;5029804;28;20533;-50
2023/01/27 11:57:50;;;;;;;8.77;6.40;;;-1.10;99.90;;;;;;5018148;28;20453;-50
2023/01/27 12:00:23;;;;;;;10.57;6.13;;;-1.10;99.90;;;;;;5009873;28;20539;-51
2023/01/27 12:02:59;;;;;;;7.40;4.80;;;-1.10;99.90;;;;;;5010258;28;20929;-49
2023/01/27 12:05:31;;;;;;;7.60;5.70;;;-1.00;99.90;;;;;;5009914;28;21095;-49
2023/01/27 12:08:00;;;;;;;8.67;5.27;;;-0.90;99.90;;;;;;5010220;28;20530;-50
2023/01/27 12:10:30;;;;;;;5.57;3.97;;;-0.70;99.90;;;;;;5009839;28;20526;-49
2023/01/27 12:12:58;;;;;;;7.80;5.33;;;-0.70;99.90;;;;;;5008371;28;20518;-49
2023/01/27 12:15:27;;;;;;;4.90;4.43;;;-0.80;99.90;;;;;;5008940;28;20534;-50
2023/01/27 12:20:37;;;;;;;7.67;5.00;;;-0.60;99.90;;;;;;5046108;28;20461;-47
2023/01/27 12:23:15;;;;;;;5.63;4.60;;;-0.40;99.90;;;;;;5047664;28;20480;-46
2023/01/27 12:25:45;;;;;;;4.80;4.20;;;-0.30;99.90;;;;;;5049574;28;20884;-45
2023/01/27 12:28:32;;;;;;;6.90;6.10;;;-0.20;99.90;;;;;;5049820;28;20897;-46
2023/01/27 12:31:06;;;;;;;8.27;5.57;;;-0.10;99.90;;;;;;5049344;28;20520;-46
2023/01/27 12:33:34;;;;;;;8.70;5.80;;;0.10;99.90;;;;;;5048733;28;20529;-45
2023/01/27 12:36:14;;;;;;;10.70;5.90;;;0.00;99.90;;;;;;5049431;28;20521;-46
2023/01/27 12:38:45;;;;;;;8.10;5.37;;;-0.10;99.90;;;;;;5049693;28;20453;-46
2023/01/27 12:41:19;;;;;;;6.77;5.13;;;-0.20;99.90;;;;;;5049743;28;20434;-47
2023/01/27 12:43:54;;;;;;;5.87;4.27;;;-0.20;99.90;;;;;;5048210;28;20437;-46
2023/01/27 12:46:23;;;;;;;4.67;3.77;;;-0.20;99.90;;;;;;5047751;28;20560;-46
2023/01/27 12:48:53;;;;;;;5.90;4.23;;;-0.20;99.90;;;;;;5048488;28;20844;-47
2023/01/27 12:51:23;;;;;;;6.30;4.10;;;-0.20;99.90;;;;;;5048370;28;20532;-46
2023/01/27 12:54:11;;;;;;;5.53;4.57;;;-0.20;99.90;;;;;;5048166;28;20529;-50
2023/01/27 12:56:38;;;;;;;5.40;3.43;;;-0.10;99.90;;;;;;5047743;28;20532;-45
2023/01/27 12:59:05;;;;;;;6.73;4.43;;;-0.10;99.90;;;;;;5048212;28;20545;-47
2023/01/27 13:01:36;;;;;;;7.00;4.47;;;-0.20;99.90;;;;;;5049255;28;20524;-46
2023/01/27 13:04:05;;;;;;;6.20;4.47;;;-0.20;99.90;;;;;;5048772;28;20822;-46
2023/01/27 13:06:42;;;;;;;11.47;7.80;;;-0.20;99.90;;;;;;5048991;28;20560;-46
2023/01/27 13:09:24;;;;;;;27.80;12.27;;;-0.30;99.90;;;;;;5049513;28;20524;-46
2023/01/27 13:11:52;;;;;;;11.67;7.73;;;-0.30;99.90;;;;;;5048880;28;20533;-46
2023/01/27 13:14:19;;;;;;;20.30;10.27;;;-0.30;99.90;;;;;;5048894;28;20480;-46
2023/01/27 13:16:52;;;;;;;12.90;5.70;;;-0.20;99.90;;;;;;5049149;28;20528;-47
2023/01/27 13:19:19;;;;;;;5.97;4.33;;;-0.20;99.90;;;;;;5049143;28;20476;-46
2023/01/27 13:21:50;;;;;;;5.10;4.13;;;-0.10;99.90;;;;;;5048717;28;20545;-46
2023/01/27 13:24:24;;;;;;;6.20;4.13;;;0.00;99.90;;;;;;5048266;28;20878;-46
2023/01/27 13:26:52;;;;;;;5.57;4.10;;;0.00;99.90;;;;;;5049742;28;20530;-46
2023/01/27 13:29:26;;;;;;;5.57;4.20;;;-0.30;99.90;;;;;;5048881;28;20549;-47
2023/01/27 13:31:59;;;;;;;5.83;4.27;;;-0.40;99.90;;;;;;5049162;28;20528;-46
2023/01/27 13:34:33;;;;;;;4.83;4.33;;;-0.40;99.90;;;;;;5051937;28;20533;-47
2023/01/27 13:37:07;;;;;;;6.83;5.00;;;-0.30;99.90;;;;;;5053065;28;20511;-48
2023/01/27 13:39:53;;;;;;;5.80;3.73;;;-0.50;99.90;;;;;;5052744;28;20515;-46